sensor_id;sensor_type;location;lat;lon;timestamp;temperature;humidity
46416;DHT22;32620;51.704;7.822;2023-04-15T00:01:34;7.20;6.80
46416;DHT22;32620;51.704;7.822;2023-04-15T00:04:01;7.20;14.30
46416;DHT22;32620;51.704;7.822;2023-04-15T00:06:26;7.20;9.80
46416;DHT22;32620;51.704;7.822;2023-04-15T00:08:52;7.10;9.60
46416;DHT22;32620;51.704;7.822;2023-04-15T00:11:17;7.00;17.50
46416;DHT22;32620;51.704;7.822;2023-04-15T00:13:44;7.10;24.00
46416;DHT22;32620;51.704;7.822;2023-04-15T00:16:10;7.10;25.70
46416;DHT22;32620;51.704;7.822;2023-04-15T00:18:36;7.00;26.60
46416;DHT22;32620;51.704;7.822;2023-04-15T00:21:02;6.90;27.70
46416;DHT22;32620;51.704;7.822;2023-04-15T00:23:27;6.80;29.40
46416;DHT22;32620;51.704;7.822;2023-04-15T00:25:53;6.80;47.90
46416;DHT22;32620;51.704;7.822;2023-04-15T00:28:19;6.80;53.80
46416;DHT22;32620;51.704;7.822;2023-04-15T00:30:45;6.80;66.50
46416;DHT22;32620;51.704;7.822;2023-04-15T00:33:12;6.80;65.00
46416;DHT22;32620;51.704;7.822;2023-04-15T00:35:38;6.80;69.00
46416;DHT22;32620;51.704;7.822;2023-04-15T00:38:04;6.80;76.90
46416;DHT22;32620;51.704;7.822;2023-04-15T00:40:30;6.90;72.60
46416;DHT22;32620;51.704;7.822;2023-04-15T00:45:22;6.80;68.40
46416;DHT22;32620;51.704;7.822;2023-04-15T00:47:48;6.80;64.70
46416;DHT22;32620;51.704;7.822;2023-04-15T02:21:10;6.20;97.80
46416;DHT22;32620;51.704;7.822;2023-04-15T02:23:35;6.30;97.40
46416;DHT22;32620;51.704;7.822;2023-04-15T02:26:01;6.40;96.80
46416;DHT22;32620;51.704;7.822;2023-04-15T02:28:27;6.40;95.80
46416;DHT22;32620;51.704;7.822;2023-04-15T02:30:52;6.40;90.90
46416;DHT22;32620;51.704;7.822;2023-04-15T02:33:20;6.40;90.50
46416;DHT22;32620;51.704;7.822;2023-04-15T02:35:46;6.40;92.20
46416;DHT22;32620;51.704;7.822;2023-04-15T02:38:11;6.30;93.00
46416;DHT22;32620;51.704;7.822;2023-04-15T02:40:38;6.30;94.20
46416;DHT22;32620;51.704;7.822;2023-04-15T02:43:04;6.30;95.40
46416;DHT22;32620;51.704;7.822;2023-04-15T02:45:31;6.20;97.70
46416;DHT22;32620;51.704;7.822;2023-04-15T02:47:57;6.20;98.70
46416;DHT22;32620;51.704;7.822;2023-04-15T02:50:23;6.10;99.90
46416;DHT22;32620;51.704;7.822;2023-04-15T02:52:49;6.10;99.90
46416;DHT22;32620;51.704;7.822;2023-04-15T02:55:16;6.10;99.90
46416;DHT22;32620;51.704;7.822;2023-04-15T02:57:42;6.10;99.90
46416;DHT22;32620;51.704;7.822;2023-04-15T03:00:09;6.00;99.90
46416;DHT22;32620;51.704;7.822;2023-04-15T03:02:37;5.90;99.90
46416;DHT22;32620;51.704;7.822;2023-04-15T03:05:04;5.80;99.90
46416;DHT22;32620;51.704;7.822;2023-04-15T03:07:30;5.90;99.90
46416;DHT22;32620;51.704;7.822;2023-04-15T03:09:56;6.00;99.90
46416;DHT22;32620;51.704;7.822;2023-04-15T03:12:21;6.00;99.90
46416;DHT22;32620;51.704;7.822;2023-04-15T03:14:47;6.00;99.90
46416;DHT22;32620;51.704;7.822;2023-04-15T03:17:12;6.10;99.90
46416;DHT22;32620;51.704;7.822;2023-04-15T03:19:38;6.00;99.90
46416;DHT22;32620;51.704;7.822;2023-04-15T03:22:03;6.10;99.90
46416;DHT22;32620;51.704;7.822;2023-04-15T03:24:29;6.10;99.90
46416;DHT22;32620;51.704;7.822;2023-04-15T03:26:55;6.00;99.90
46416;DHT22;32620;51.704;7.822;2023-04-15T03:29:22;6.00;99.90
46416;DHT22;32620;51.704;7.822;2023-04-15T03:31:47;6.00;99.90
46416;DHT22;32620;51.704;7.822;2023-04-15T03:34:13;6.00;99.90
46416;DHT22;32620;51.704;7.822;2023-04-15T03:36:39;6.00;99.90
46416;DHT22;32620;51.704;7.822;2023-04-15T03:39:04;5.90;99.90
46416;DHT22;32620;51.704;7.822;2023-04-15T03:41:30;5.90;99.90
46416;DHT22;32620;51.704;7.822;2023-04-15T03:43:57;5.90;99.90
46416;DHT22;32620;51.704;7.822;2023-04-15T03:46:22;5.80;99.90
46416;DHT22;32620;51.704;7.822;2023-04-15T03:48:48;5.80;99.90
46416;DHT22;32620;51.704;7.822;2023-04-15T03:51:13;5.80;99.90
46416;DHT22;32620;51.704;7.822;2023-04-15T03:53:39;5.80;99.90
46416;DHT22;32620;51.704;7.822;2023-04-15T03:56:04;5.80;99.90
46416;DHT22;32620;51.704;7.822;2023-04-15T03:58:30;5.70;99.90
46416;DHT22;32620;51.704;7.822;2023-04-15T04:00:55;5.80;99.90
46416;DHT22;32620;51.704;7.822;2023-04-15T04:03:21;5.80;99.90
46416;DHT22;32620;51.704;7.822;2023-04-15T04:05:46;5.80;99.90
46416;DHT22;32620;51.704;7.822;2023-04-15T04:08:12;5.80;99.90
46416;DHT22;32620;51.704;7.822;2023-04-15T04:10:38;5.80;99.90
46416;DHT22;32620;51.704;7.822;2023-04-15T04:13:04;5.80;99.90
46416;DHT22;32620;51.704;7.822;2023-04-15T04:15:30;5.80;99.90
46416;DHT22;32620;51.704;7.822;2023-04-15T04:17:55;5.80;99.90
46416;DHT22;32620;51.704;7.822;2023-04-15T04:20:21;5.90;99.90
46416;DHT22;32620;51.704;7.822;2023-04-15T04:22:47;5.90;99.90
46416;DHT22;32620;51.704;7.822;2023-04-15T04:25:12;5.90;99.90
46416;DHT22;32620;51.704;7.822;2023-04-15T04:27:38;5.90;99.90
46416;DHT22;32620;51.704;7.822;2023-04-15T04:30:05;5.90;99.90
46416;DHT22;32620;51.704;7.822;2023-04-15T04:32:31;5.90;99.90
46416;DHT22;32620;51.704;7.822;2023-04-15T04:34:56;5.90;99.90
46416;DHT22;32620;51.704;7.822;2023-04-15T04:37:22;5.80;99.90
46416;DHT22;32620;51.704;7.822;2023-04-15T04:39:48;5.70;99.90
46416;DHT22;32620;51.704;7.822;2023-04-15T04:42:14;5.50;99.90
46416;DHT22;32620;51.704;7.822;2023-04-15T04:44:40;5.50;99.90
46416;DHT22;32620;51.704;7.822;2023-04-15T04:47:05;5.40;99.90
46416;DHT22;32620;51.704;7.822;2023-04-15T04:49:32;5.40;99.90
46416;DHT22;32620;51.704;7.822;2023-04-15T04:51:58;5.50;99.90
46416;DHT22;32620;51.704;7.822;2023-04-15T04:54:23;5.60;99.90
46416;DHT22;32620;51.704;7.822;2023-04-15T04:56:49;5.70;99.90
46416;DHT22;32620;51.704;7.822;2023-04-15T04:59:14;5.60;99.90
46416;DHT22;32620;51.704;7.822;2023-04-15T05:01:40;5.60;99.90
46416;DHT22;32620;51.704;7.822;2023-04-15T05:04:06;5.60;99.90
46416;DHT22;32620;51.704;7.822;2023-04-15T05:06:32;5.60;99.90
46416;DHT22;32620;51.704;7.822;2023-04-15T05:08:57;5.70;99.90
46416;DHT22;32620;51.704;7.822;2023-04-15T05:11:23;5.70;99.90
46416;DHT22;32620;51.704;7.822;2023-04-15T05:13:48;5.80;99.90
46416;DHT22;32620;51.704;7.822;2023-04-15T05:16:14;5.80;99.90
46416;DHT22;32620;51.704;7.822;2023-04-15T05:18:39;5.90;99.90
46416;DHT22;32620;51.704;7.822;2023-04-15T05:21:05;6.00;99.90
46416;DHT22;32620;51.704;7.822;2023-04-15T05:23:31;6.10;99.90
46416;DHT22;32620;51.704;7.822;2023-04-15T05:25:56;6.20;99.90
46416;DHT22;32620;51.704;7.822;2023-04-15T05:28:22;6.20;99.90
46416;DHT22;32620;51.704;7.822;2023-04-15T05:30:47;6.30;99.90
46416;DHT22;32620;51.704;7.822;2023-04-15T05:33:13;6.30;99.90
46416;DHT22;32620;51.704;7.822;2023-04-15T05:35:38;6.30;99.90
46416;DHT22;32620;51.704;7.822;2023-04-15T05:38:04;6.30;99.90
46416;DHT22;32620;51.704;7.822;2023-04-15T05:40:30;6.40;99.90
46416;DHT22;32620;51.704;7.822;2023-04-15T05:42:55;6.40;99.90
46416;DHT22;32620;51.704;7.822;2023-04-15T05:45:21;6.40;99.90
46416;DHT22;32620;51.704;7.822;2023-04-15T05:47:46;6.40;99.90
46416;DHT22;32620;51.704;7.822;2023-04-15T05:50:14;6.50;99.90
46416;DHT22;32620;51.704;7.822;2023-04-15T05:52:40;6.50;99.90
46416;DHT22;32620;51.704;7.822;2023-04-15T05:55:06;6.60;99.90
46416;DHT22;32620;51.704;7.822;2023-04-15T05:57:32;6.60;99.90
46416;DHT22;32620;51.704;7.822;2023-04-15T05:59:57;6.60;99.90
46416;DHT22;32620;51.704;7.822;2023-04-15T06:02:23;6.70;99.90
46416;DHT22;32620;51.704;7.822;2023-04-15T06:04:48;6.70;99.90
46416;DHT22;32620;51.704;7.822;2023-04-15T06:07:14;6.70;99.90
46416;DHT22;32620;51.704;7.822;2023-04-15T06:09:39;6.80;99.90
46416;DHT22;32620;51.704;7.822;2023-04-15T06:12:05;6.80;99.90
46416;DHT22;32620;51.704;7.822;2023-04-15T06:14:36;6.90;99.90
46416;DHT22;32620;51.704;7.822;2023-04-15T06:17:02;6.90;99.90
46416;DHT22;32620;51.704;7.822;2023-04-15T06:19:28;7.00;99.90
46416;DHT22;32620;51.704;7.822;2023-04-15T06:21:53;7.00;99.90
46416;DHT22;32620;51.704;7.822;2023-04-15T06:24:19;7.00;99.90
46416;DHT22;32620;51.704;7.822;2023-04-15T06:26:45;7.10;99.90
46416;DHT22;32620;51.704;7.822;2023-04-15T06:29:10;7.10;99.90
46416;DHT22;32620;51.704;7.822;2023-04-15T06:31:36;7.20;99.90
46416;DHT22;32620;51.704;7.822;2023-04-15T06:34:01;7.10;99.90
46416;DHT22;32620;51.704;7.822;2023-04-15T06:36:27;7.10;99.90
46416;DHT22;32620;51.704;7.822;2023-04-15T06:38:52;7.30;99.90
46416;DHT22;32620;51.704;7.822;2023-04-15T06:41:18;7.40;99.90
46416;DHT22;32620;51.704;7.822;2023-04-15T06:43:43;7.50;99.90
46416;DHT22;32620;51.704;7.822;2023-04-15T06:46:09;7.50;99.90
46416;DHT22;32620;51.704;7.822;2023-04-15T06:48:35;7.50;99.90
46416;DHT22;32620;51.704;7.822;2023-04-15T06:51:00;7.60;99.90
46416;DHT22;32620;51.704;7.822;2023-04-15T06:53:26;7.60;99.90
46416;DHT22;32620;51.704;7.822;2023-04-15T06:55:52;7.80;99.90
46416;DHT22;32620;51.704;7.822;2023-04-15T06:58:17;7.90;96.30
46416;DHT22;32620;51.704;7.822;2023-04-15T07:00:43;8.00;90.50
46416;DHT22;32620;51.704;7.822;2023-04-15T07:03:09;8.30;90.20
46416;DHT22;32620;51.704;7.822;2023-04-15T07:05:35;8.30;56.60
46416;DHT22;32620;51.704;7.822;2023-04-15T07:08:01;8.40;58.10
46416;DHT22;32620;51.704;7.822;2023-04-15T07:10:26;8.50;55.60
46416;DHT22;32620;51.704;7.822;2023-04-15T07:12:52;8.70;57.00
46416;DHT22;32620;51.704;7.822;2023-04-15T07:15:17;8.80;46.30
46416;DHT22;32620;51.704;7.822;2023-04-15T07:17:43;8.70;42.60
46416;DHT22;32620;51.704;7.822;2023-04-15T07:20:08;8.90;39.40
46416;DHT22;32620;51.704;7.822;2023-04-15T07:22:34;9.00;34.30
46416;DHT22;32620;51.704;7.822;2023-04-15T07:25:00;9.20;28.00
46416;DHT22;32620;51.704;7.822;2023-04-15T07:27:25;9.60;29.90
46416;DHT22;32620;51.704;7.822;2023-04-15T07:29:51;10.00;14.20
46416;DHT22;32620;51.704;7.822;2023-04-15T07:32:17;10.10;1.00
46416;DHT22;32620;51.704;7.822;2023-04-15T07:34:43;10.60;1.00
46416;DHT22;32620;51.704;7.822;2023-04-15T07:37:09;10.40;1.00
46416;DHT22;32620;51.704;7.822;2023-04-15T07:39:35;10.70;1.00
46416;DHT22;32620;51.704;7.822;2023-04-15T07:42:01;11.20;1.00
46416;DHT22;32620;51.704;7.822;2023-04-15T07:44:28;10.80;1.00
46416;DHT22;32620;51.704;7.822;2023-04-15T07:46:55;11.40;99.90
46416;DHT22;32620;51.704;7.822;2023-04-15T07:49:20;10.70;99.90
46416;DHT22;32620;51.704;7.822;2023-04-15T07:51:46;11.40;99.90
46416;DHT22;32620;51.704;7.822;2023-04-15T07:54:12;11.30;99.90
46416;DHT22;32620;51.704;7.822;2023-04-15T07:56:38;11.20;99.90
46416;DHT22;32620;51.704;7.822;2023-04-15T07:59:03;11.10;99.90
46416;DHT22;32620;51.704;7.822;2023-04-15T08:01:30;10.50;99.90
46416;DHT22;32620;51.704;7.822;2023-04-15T08:03:57;10.60;1.00
46416;DHT22;32620;51.704;7.822;2023-04-15T08:06:23;10.10;1.00
46416;DHT22;32620;51.704;7.822;2023-04-15T08:08:48;9.50;1.00
46416;DHT22;32620;51.704;7.822;2023-04-15T08:11:14;9.40;1.00
46416;DHT22;32620;51.704;7.822;2023-04-15T08:13:39;9.10;1.00
46416;DHT22;32620;51.704;7.822;2023-04-15T08:16:23;9.30;7.40
46416;DHT22;32620;51.704;7.822;2023-04-15T08:18:50;9.50;1.00
46416;DHT22;32620;51.704;7.822;2023-04-15T08:21:17;9.80;1.00
46416;DHT22;32620;51.704;7.822;2023-04-15T08:23:44;9.90;1.00
46416;DHT22;32620;51.704;7.822;2023-04-15T08:26:09;9.60;1.00
46416;DHT22;32620;51.704;7.822;2023-04-15T08:28:37;9.30;1.00
46416;DHT22;32620;51.704;7.822;2023-04-15T08:31:03;9.40;1.00
46416;DHT22;32620;51.704;7.822;2023-04-15T08:33:28;9.50;1.00
46416;DHT22;32620;51.704;7.822;2023-04-15T08:35:54;9.60;1.00
46416;DHT22;32620;51.704;7.822;2023-04-15T08:38:19;9.60;1.00
46416;DHT22;32620;51.704;7.822;2023-04-15T08:40:45;9.60;1.00
46416;DHT22;32620;51.704;7.822;2023-04-15T08:43:17;9.60;1.00
46416;DHT22;32620;51.704;7.822;2023-04-15T08:45:45;9.70;1.00
46416;DHT22;32620;51.704;7.822;2023-04-15T08:48:14;9.70;1.00
46416;DHT22;32620;51.704;7.822;2023-04-15T08:50:41;9.70;1.00
46416;DHT22;32620;51.704;7.822;2023-04-15T08:53:07;9.80;1.00
46416;DHT22;32620;51.704;7.822;2023-04-15T08:55:35;9.70;1.00
46416;DHT22;32620;51.704;7.822;2023-04-15T08:58:02;9.60;1.00
46416;DHT22;32620;51.704;7.822;2023-04-15T09:00:30;9.80;1.00
46416;DHT22;32620;51.704;7.822;2023-04-15T09:02:55;9.80;1.00
46416;DHT22;32620;51.704;7.822;2023-04-15T09:05:23;9.70;1.00
46416;DHT22;32620;51.704;7.822;2023-04-15T09:07:50;10.00;1.00
46416;DHT22;32620;51.704;7.822;2023-04-15T09:10:15;9.80;1.00
46416;DHT22;32620;51.704;7.822;2023-04-15T09:12:41;9.60;1.00
46416;DHT22;32620;51.704;7.822;2023-04-15T09:15:07;9.60;1.00
46416;DHT22;32620;51.704;7.822;2023-04-15T09:17:41;9.70;1.00
46416;DHT22;32620;51.704;7.822;2023-04-15T09:20:10;9.80;1.00
46416;DHT22;32620;51.704;7.822;2023-04-15T09:22:38;9.70;1.00
46416;DHT22;32620;51.704;7.822;2023-04-15T09:25:24;9.60;1.00
46416;DHT22;32620;51.704;7.822;2023-04-15T09:27:52;9.80;2.70
46416;DHT22;32620;51.704;7.822;2023-04-15T09:30:18;9.70;7.00
46416;DHT22;32620;51.704;7.822;2023-04-15T09:32:51;9.60;13.80
46416;DHT22;32620;51.704;7.822;2023-04-15T09:35:17;9.60;23.20
46416;DHT22;32620;51.704;7.822;2023-04-15T09:37:43;9.50;25.20
46416;DHT22;32620;51.704;7.822;2023-04-15T09:40:09;9.60;23.90
46416;DHT22;32620;51.704;7.822;2023-04-15T09:42:35;9.60;25.30
46416;DHT22;32620;51.704;7.822;2023-04-15T09:45:17;9.60;25.80
46416;DHT22;32620;51.704;7.822;2023-04-15T09:47:42;9.80;20.20
46416;DHT22;32620;51.704;7.822;2023-04-15T09:50:08;9.80;25.80
46416;DHT22;32620;51.704;7.822;2023-04-15T09:52:40;9.70;34.90
46416;DHT22;32620;51.704;7.822;2023-04-15T09:55:07;9.70;32.90
46416;DHT22;32620;51.704;7.822;2023-04-15T09:57:34;9.60;52.70
46416;DHT22;32620;51.704;7.822;2023-04-15T10:00:02;9.50;93.60
46416;DHT22;32620;51.704;7.822;2023-04-15T10:02:29;9.50;99.90
46416;DHT22;32620;51.704;7.822;2023-04-15T10:04:55;9.60;99.90
46416;DHT22;32620;51.704;7.822;2023-04-15T10:07:21;9.40;97.20
46416;DHT22;32620;51.704;7.822;2023-04-15T10:09:48;9.50;99.90
46416;DHT22;32620;51.704;7.822;2023-04-15T10:12:16;9.60;99.90
46416;DHT22;32620;51.704;7.822;2023-04-15T10:14:42;9.70;99.90
46416;DHT22;32620;51.704;7.822;2023-04-15T10:17:10;9.80;99.90
46416;DHT22;32620;51.704;7.822;2023-04-15T10:19:37;9.90;99.90
46416;DHT22;32620;51.704;7.822;2023-04-15T10:22:03;9.80;99.90
46416;DHT22;32620;51.704;7.822;2023-04-15T10:24:30;9.80;99.90
46416;DHT22;32620;51.704;7.822;2023-04-15T10:26:57;9.90;99.90
46416;DHT22;32620;51.704;7.822;2023-04-15T10:29:24;10.00;99.90
46416;DHT22;32620;51.704;7.822;2023-04-15T10:31:52;9.80;96.40
46416;DHT22;32620;51.704;7.822;2023-04-15T10:34:19;9.80;99.90
46416;DHT22;32620;51.704;7.822;2023-04-15T10:36:46;9.70;99.90
46416;DHT22;32620;51.704;7.822;2023-04-15T10:42:17;9.60;99.90
46416;DHT22;32620;51.704;7.822;2023-04-15T10:44:48;9.60;99.90
46416;DHT22;32620;51.704;7.822;2023-04-15T10:47:17;9.70;99.90
46416;DHT22;32620;51.704;7.822;2023-04-15T10:49:46;9.70;99.90
46416;DHT22;32620;51.704;7.822;2023-04-15T10:52:13;9.60;99.90
46416;DHT22;32620;51.704;7.822;2023-04-15T10:54:39;9.60;99.90
46416;DHT22;32620;51.704;7.822;2023-04-15T11:00:01;9.60;99.90
46416;DHT22;32620;51.704;7.822;2023-04-15T11:05:16;9.60;99.90
46416;DHT22;32620;51.704;7.822;2023-04-15T11:13:02;9.60;99.90
46416;DHT22;32620;51.704;7.822;2023-04-15T11:15:33;9.50;99.90
46416;DHT22;32620;51.704;7.822;2023-04-15T11:20:49;9.40;99.90
46416;DHT22;32620;51.704;7.822;2023-04-15T11:23:17;9.50;99.90
46416;DHT22;32620;51.704;7.822;2023-04-15T11:25:43;9.40;99.90
46416;DHT22;32620;51.704;7.822;2023-04-15T11:28:10;9.40;99.90
46416;DHT22;32620;51.704;7.822;2023-04-15T11:30:36;9.50;99.90
46416;DHT22;32620;51.704;7.822;2023-04-15T11:33:07;9.50;99.90
46416;DHT22;32620;51.704;7.822;2023-04-15T11:35:33;9.60;99.90
46416;DHT22;32620;51.704;7.822;2023-04-15T11:38:03;9.50;99.90
46416;DHT22;32620;51.704;7.822;2023-04-15T11:40:30;9.50;99.90
46416;DHT22;32620;51.704;7.822;2023-04-15T11:43:15;9.50;99.90
46416;DHT22;32620;51.704;7.822;2023-04-15T11:45:58;9.50;99.90
46416;DHT22;32620;51.704;7.822;2023-04-15T11:48:25;9.50;99.90
46416;DHT22;32620;51.704;7.822;2023-04-15T11:50:53;9.50;99.90
46416;DHT22;32620;51.704;7.822;2023-04-15T11:53:19;9.50;99.90
46416;DHT22;32620;51.704;7.822;2023-04-15T11:55:46;9.50;99.90
46416;DHT22;32620;51.704;7.822;2023-04-15T11:58:22;9.50;99.90
46416;DHT22;32620;51.704;7.822;2023-04-15T12:00:53;9.50;99.90
46416;DHT22;32620;51.704;7.822;2023-04-15T12:03:28;9.50;99.90
46416;DHT22;32620;51.704;7.822;2023-04-15T12:06:17;9.40;99.90
46416;DHT22;32620;51.704;7.822;2023-04-15T12:11:39;9.40;99.90
46416;DHT22;32620;51.704;7.822;2023-04-15T12:16:46;9.50;99.90
46416;DHT22;32620;51.704;7.822;2023-04-15T12:19:15;9.50;99.90
46416;DHT22;32620;51.704;7.822;2023-04-15T12:21:44;9.60;99.90
46416;DHT22;32620;51.704;7.822;2023-04-15T12:24:10;9.50;99.90
46416;DHT22;32620;51.704;7.822;2023-04-15T12:26:49;9.60;99.90
46416;DHT22;32620;51.704;7.822;2023-04-15T12:29:16;9.60;99.90
46416;DHT22;32620;51.704;7.822;2023-04-15T12:32:02;9.60;99.90
46416;DHT22;32620;51.704;7.822;2023-04-15T12:34:32;9.60;99.90
46416;DHT22;32620;51.704;7.822;2023-04-15T12:37:00;9.60;99.90
46416;DHT22;32620;51.704;7.822;2023-04-15T12:39:28;9.70;99.90
46416;DHT22;32620;51.704;7.822;2023-04-15T12:41:54;9.70;99.90
46416;DHT22;32620;51.704;7.822;2023-04-15T12:44:22;9.70;99.90
46416;DHT22;32620;51.704;7.822;2023-04-15T12:46:48;9.70;99.90
46416;DHT22;32620;51.704;7.822;2023-04-15T12:49:14;9.70;99.90
46416;DHT22;32620;51.704;7.822;2023-04-15T12:51:41;9.80;99.90
46416;DHT22;32620;51.704;7.822;2023-04-15T12:54:06;9.70;99.90
46416;DHT22;32620;51.704;7.822;2023-04-15T12:56:32;9.80;99.90
46416;DHT22;32620;51.704;7.822;2023-04-15T12:58:58;9.90;99.90
46416;DHT22;32620;51.704;7.822;2023-04-15T13:01:23;9.90;99.90
46416;DHT22;32620;51.704;7.822;2023-04-15T13:03:49;9.90;99.90
46416;DHT22;32620;51.704;7.822;2023-04-15T13:06:15;9.90;99.90
46416;DHT22;32620;51.704;7.822;2023-04-15T13:08:41;9.90;99.90
46416;DHT22;32620;51.704;7.822;2023-04-15T13:11:06;9.80;99.90
46416;DHT22;32620;51.704;7.822;2023-04-15T13:13:32;9.90;99.90
46416;DHT22;32620;51.704;7.822;2023-04-15T13:15:58;10.00;99.90
46416;DHT22;32620;51.704;7.822;2023-04-15T13:18:24;9.90;99.90
46416;DHT22;32620;51.704;7.822;2023-04-15T13:20:49;10.00;99.90
46416;DHT22;32620;51.704;7.822;2023-04-15T13:23:15;10.00;99.90
46416;DHT22;32620;51.704;7.822;2023-04-15T13:25:41;9.90;99.90
46416;DHT22;32620;51.704;7.822;2023-04-15T13:28:07;9.90;99.90
46416;DHT22;32620;51.704;7.822;2023-04-15T13:30:33;9.90;99.90
46416;DHT22;32620;51.704;7.822;2023-04-15T13:32:59;9.70;99.90
46416;DHT22;32620;51.704;7.822;2023-04-15T13:35:25;9.80;99.90
46416;DHT22;32620;51.704;7.822;2023-04-15T13:37:52;9.70;99.90
46416;DHT22;32620;51.704;7.822;2023-04-15T13:40:19;9.80;99.90
46416;DHT22;32620;51.704;7.822;2023-04-15T13:42:44;9.80;99.90
46416;DHT22;32620;51.704;7.822;2023-04-15T13:45:10;9.80;99.90
46416;DHT22;32620;51.704;7.822;2023-04-15T13:47:36;9.80;99.90
46416;DHT22;32620;51.704;7.822;2023-04-15T13:50:01;9.80;99.90
46416;DHT22;32620;51.704;7.822;2023-04-15T13:52:27;9.70;99.90
46416;DHT22;32620;51.704;7.822;2023-04-15T13:54:52;9.70;99.90
46416;DHT22;32620;51.704;7.822;2023-04-15T13:57:18;9.70;99.90
46416;DHT22;32620;51.704;7.822;2023-04-15T13:59:43;9.70;99.90
46416;DHT22;32620;51.704;7.822;2023-04-15T14:02:09;9.70;99.90
46416;DHT22;32620;51.704;7.822;2023-04-15T14:04:34;9.70;99.90
46416;DHT22;32620;51.704;7.822;2023-04-15T14:07:00;9.70;99.90
46416;DHT22;32620;51.704;7.822;2023-04-15T14:09:25;9.60;99.90
46416;DHT22;32620;51.704;7.822;2023-04-15T14:11:51;9.50;99.90
46416;DHT22;32620;51.704;7.822;2023-04-15T14:14:17;9.50;99.90
46416;DHT22;32620;51.704;7.822;2023-04-15T14:16:42;9.50;99.90
46416;DHT22;32620;51.704;7.822;2023-04-15T14:19:08;9.50;99.90
46416;DHT22;32620;51.704;7.822;2023-04-15T14:21:33;9.50;99.90
46416;DHT22;32620;51.704;7.822;2023-04-15T14:23:59;9.50;99.90
46416;DHT22;32620;51.704;7.822;2023-04-15T14:26:24;9.40;99.90
46416;DHT22;32620;51.704;7.822;2023-04-15T14:28:50;9.40;99.90
46416;DHT22;32620;51.704;7.822;2023-04-15T14:31:16;9.40;99.90
46416;DHT22;32620;51.704;7.822;2023-04-15T14:33:41;9.40;99.90
46416;DHT22;32620;51.704;7.822;2023-04-15T14:36:08;9.30;99.90
46416;DHT22;32620;51.704;7.822;2023-04-15T14:38:34;9.30;99.90
46416;DHT22;32620;51.704;7.822;2023-04-15T14:41:05;9.30;99.90
46416;DHT22;32620;51.704;7.822;2023-04-15T14:43:31;9.30;99.90
46416;DHT22;32620;51.704;7.822;2023-04-15T14:45:57;9.30;99.90
46416;DHT22;32620;51.704;7.822;2023-04-15T14:48:23;9.20;99.90
46416;DHT22;32620;51.704;7.822;2023-04-15T14:50:48;9.20;99.90
46416;DHT22;32620;51.704;7.822;2023-04-15T14:53:14;9.30;99.90
46416;DHT22;32620;51.704;7.822;2023-04-15T14:55:39;9.20;99.90
46416;DHT22;32620;51.704;7.822;2023-04-15T14:58:05;9.20;99.90
46416;DHT22;32620;51.704;7.822;2023-04-15T15:00:32;9.20;99.90
46416;DHT22;32620;51.704;7.822;2023-04-15T15:02:58;9.20;99.90
46416;DHT22;32620;51.704;7.822;2023-04-15T15:05:24;9.20;99.90
46416;DHT22;32620;51.704;7.822;2023-04-15T15:07:49;9.20;99.90
46416;DHT22;32620;51.704;7.822;2023-04-15T15:10:15;9.20;99.90
46416;DHT22;32620;51.704;7.822;2023-04-15T15:12:40;9.20;99.90
46416;DHT22;32620;51.704;7.822;2023-04-15T15:15:06;9.10;99.90
46416;DHT22;32620;51.704;7.822;2023-04-15T15:17:33;9.20;99.90
46416;DHT22;32620;51.704;7.822;2023-04-15T15:19:59;9.10;99.90
46416;DHT22;32620;51.704;7.822;2023-04-15T15:22:24;9.10;99.90
46416;DHT22;32620;51.704;7.822;2023-04-15T15:24:50;9.10;99.90
46416;DHT22;32620;51.704;7.822;2023-04-15T15:27:16;9.10;99.90
46416;DHT22;32620;51.704;7.822;2023-04-15T15:29:41;9.10;99.90
46416;DHT22;32620;51.704;7.822;2023-04-15T15:32:07;9.00;99.90
46416;DHT22;32620;51.704;7.822;2023-04-15T15:34:32;9.10;99.90
46416;DHT22;32620;51.704;7.822;2023-04-15T15:36:59;9.10;99.90
46416;DHT22;32620;51.704;7.822;2023-04-15T15:39:25;9.00;99.90
46416;DHT22;32620;51.704;7.822;2023-04-15T15:41:50;9.00;99.90
46416;DHT22;32620;51.704;7.822;2023-04-15T15:44:16;9.00;99.90
46416;DHT22;32620;51.704;7.822;2023-04-15T15:46:41;9.00;99.90
46416;DHT22;32620;51.704;7.822;2023-04-15T15:49:07;8.90;99.90
46416;DHT22;32620;51.704;7.822;2023-04-15T15:51:32;8.90;99.90
46416;DHT22;32620;51.704;7.822;2023-04-15T15:53:58;8.90;99.90
46416;DHT22;32620;51.704;7.822;2023-04-15T15:56:24;9.00;99.90
46416;DHT22;32620;51.704;7.822;2023-04-15T15:58:49;9.00;99.90
46416;DHT22;32620;51.704;7.822;2023-04-15T16:01:15;8.90;99.90
46416;DHT22;32620;51.704;7.822;2023-04-15T16:03:41;8.90;99.90
46416;DHT22;32620;51.704;7.822;2023-04-15T16:06:06;9.00;99.90
46416;DHT22;32620;51.704;7.822;2023-04-15T16:08:32;9.00;99.90
46416;DHT22;32620;51.704;7.822;2023-04-15T16:10:57;8.90;99.90
46416;DHT22;32620;51.704;7.822;2023-04-15T16:13:23;9.00;99.90
46416;DHT22;32620;51.704;7.822;2023-04-15T16:15:48;9.00;99.90
46416;DHT22;32620;51.704;7.822;2023-04-15T16:18:15;9.00;99.90
46416;DHT22;32620;51.704;7.822;2023-04-15T16:20:40;9.00;99.90
46416;DHT22;32620;51.704;7.822;2023-04-15T16:23:11;8.90;99.90
46416;DHT22;32620;51.704;7.822;2023-04-15T16:25:37;8.90;99.90
46416;DHT22;32620;51.704;7.822;2023-04-15T16:28:03;8.90;99.90
46416;DHT22;32620;51.704;7.822;2023-04-15T16:30:28;8.90;99.90
46416;DHT22;32620;51.704;7.822;2023-04-15T16:32:55;8.80;99.90
46416;DHT22;32620;51.704;7.822;2023-04-15T16:35:21;8.90;99.90
46416;DHT22;32620;51.704;7.822;2023-04-15T16:37:46;8.90;99.90
46416;DHT22;32620;51.704;7.822;2023-04-15T16:40:12;8.80;99.90
46416;DHT22;32620;51.704;7.822;2023-04-15T16:42:38;8.80;99.90
46416;DHT22;32620;51.704;7.822;2023-04-15T16:45:04;8.90;99.90
46416;DHT22;32620;51.704;7.822;2023-04-15T16:47:30;8.90;99.90
46416;DHT22;32620;51.704;7.822;2023-04-15T16:49:55;8.90;99.90
46416;DHT22;32620;51.704;7.822;2023-04-15T16:52:21;8.80;99.90
46416;DHT22;32620;51.704;7.822;2023-04-15T16:54:46;8.80;99.90
46416;DHT22;32620;51.704;7.822;2023-04-15T16:57:12;8.80;99.90
46416;DHT22;32620;51.704;7.822;2023-04-15T16:59:37;8.80;99.90
46416;DHT22;32620;51.704;7.822;2023-04-15T17:02:03;8.80;99.90
46416;DHT22;32620;51.704;7.822;2023-04-15T17:04:28;8.80;99.90
46416;DHT22;32620;51.704;7.822;2023-04-15T17:06:54;8.80;99.90
46416;DHT22;32620;51.704;7.822;2023-04-15T17:09:19;8.80;99.90
46416;DHT22;32620;51.704;7.822;2023-04-15T17:11:45;8.70;99.90
46416;DHT22;32620;51.704;7.822;2023-04-15T17:14:10;8.70;99.90
46416;DHT22;32620;51.704;7.822;2023-04-15T17:16:36;8.70;99.90
46416;DHT22;32620;51.704;7.822;2023-04-15T17:19:02;8.70;99.90
46416;DHT22;32620;51.704;7.822;2023-04-15T17:21:28;8.70;99.90
46416;DHT22;32620;51.704;7.822;2023-04-15T17:23:53;8.70;99.90
46416;DHT22;32620;51.704;7.822;2023-04-15T17:26:19;8.70;99.90
46416;DHT22;32620;51.704;7.822;2023-04-15T17:28:45;8.70;99.90
46416;DHT22;32620;51.704;7.822;2023-04-15T17:31:10;8.70;99.90
46416;DHT22;32620;51.704;7.822;2023-04-15T17:33:37;8.70;99.90
46416;DHT22;32620;51.704;7.822;2023-04-15T17:36:02;8.70;99.90
46416;DHT22;32620;51.704;7.822;2023-04-15T17:38:28;8.70;99.90